createdAt,value
2023-04-20T00:00:22.035Z,8.20
2023-04-20T00:02:50.398Z,8.20
2023-04-20T00:05:18.793Z,8.20
2023-04-20T00:07:48.630Z,8.20
2023-04-20T00:10:16.903Z,8.20
2023-04-20T00:12:45.176Z,8.20
2023-04-20T00:15:14.913Z,8.20
2023-04-20T00:17:44.576Z,8.10
2023-04-20T00:20:15.409Z,8.10
2023-04-20T00:22:43.598Z,8.10
2023-04-20T00:25:11.888Z,8.00
2023-04-20T00:27:40.159Z,8.10
2023-04-20T00:30:10.792Z,8.10
2023-04-20T00:32:40.635Z,8.10
2023-04-20T00:35:09.393Z,8.00
2023-04-20T00:37:37.769Z,8.10
2023-04-20T00:40:07.363Z,8.00
2023-04-20T00:42:35.841Z,7.90
2023-04-20T00:45:04.220Z,7.90
2023-04-20T00:47:32.473Z,7.90
2023-04-20T00:50:02.359Z,7.80
2023-04-20T00:52:30.688Z,7.80
2023-04-20T00:54:59.023Z,7.80
2023-04-20T00:57:29.258Z,7.80
2023-04-20T00:59:57.839Z,7.70
2023-04-20T01:02:26.300Z,7.70
2023-04-20T01:04:55.478Z,7.70
2023-04-20T01:07:25.394Z,7.80
2023-04-20T01:09:53.686Z,7.80
2023-04-20T01:12:21.962Z,7.70
2023-04-20T01:14:50.130Z,7.70
2023-04-20T01:17:18.565Z,7.70
2023-04-20T01:19:46.976Z,7.70
2023-04-20T01:22:18.913Z,7.60
2023-04-20T01:24:47.147Z,7.60
2023-04-20T01:27:16.677Z,7.60
2023-04-20T01:29:45.104Z,7.50
2023-04-20T01:32:13.881Z,7.60
2023-04-20T01:34:42.889Z,7.60
2023-04-20T01:37:11.141Z,7.60
2023-04-20T01:39:41.710Z,7.50
2023-04-20T01:42:10.254Z,7.50
2023-04-20T01:44:38.382Z,7.50
2023-04-20T01:47:06.853Z,7.60
2023-04-20T01:49:35.142Z,7.60
2023-04-20T01:52:03.404Z,7.60
2023-04-20T01:54:31.719Z,7.60
2023-04-20T01:57:02.522Z,7.60
2023-04-20T01:59:31.035Z,7.60
2023-04-20T02:01:59.479Z,7.60
2023-04-20T02:04:27.977Z,7.50
2023-04-20T02:06:56.325Z,7.50
2023-04-20T02:09:24.753Z,7.50
2023-04-20T02:11:53.019Z,7.50
2023-04-20T02:14:22.653Z,7.50
2023-04-20T02:16:53.374Z,7.50
2023-04-20T02:19:21.665Z,7.40
2023-04-20T02:21:49.814Z,7.40
2023-04-20T02:24:18.065Z,7.40
2023-04-20T02:26:46.346Z,7.40
2023-04-20T02:29:14.543Z,7.40
2023-04-20T02:31:44.279Z,7.40
2023-04-20T02:34:12.619Z,7.40
2023-04-20T02:36:40.963Z,7.30
2023-04-20T02:39:09.964Z,7.30
2023-04-20T02:41:38.165Z,7.30
2023-04-20T02:44:06.495Z,7.30
2023-04-20T02:46:34.670Z,7.30
2023-04-20T02:49:04.676Z,7.20
2023-04-20T02:51:32.848Z,7.20
2023-04-20T02:54:01.201Z,7.20
2023-04-20T02:56:29.343Z,7.20
2023-04-20T02:58:57.558Z,7.20
2023-04-20T03:01:25.838Z,7.20
2023-04-20T03:03:54.201Z,7.20
2023-04-20T03:06:23.937Z,7.10
2023-04-20T03:08:52.082Z,7.10
2023-04-20T03:11:20.139Z,7.10
2023-04-20T03:13:48.479Z,7.10
2023-04-20T03:16:17.164Z,7.10
2023-04-20T03:18:45.329Z,7.10
2023-04-20T03:21:14.540Z,7.00
2023-04-20T03:23:44.195Z,7.00
2023-04-20T03:26:13.020Z,7.00
2023-04-20T03:28:41.456Z,7.00
2023-04-20T03:31:09.688Z,6.90
2023-04-20T03:33:38.016Z,6.90
2023-04-20T03:36:06.942Z,6.90
2023-04-20T03:38:35.109Z,6.80
2023-04-20T03:41:05.131Z,6.80
2023-04-20T03:43:33.532Z,6.80
2023-04-20T03:46:02.189Z,6.70
2023-04-20T03:48:30.562Z,6.70
2023-04-20T03:51:01.194Z,6.70
2023-04-20T03:53:30.103Z,6.60
2023-04-20T03:55:58.313Z,6.60
2023-04-20T03:58:28.277Z,6.60
2023-04-20T04:01:03.257Z,6.60
2023-04-20T04:03:31.759Z,6.60
2023-04-20T04:06:00.230Z,6.60
2023-04-20T04:08:28.387Z,6.50
2023-04-20T04:10:56.682Z,6.60
2023-04-20T04:13:25.047Z,6.60
2023-04-20T04:15:54.760Z,6.60
2023-04-20T04:18:23.206Z,6.60
2023-04-20T04:20:51.389Z,6.60
2023-04-20T04:23:19.549Z,6.70
2023-04-20T04:25:48.707Z,6.70
2023-04-20T04:28:17.260Z,6.70
2023-04-20T04:30:45.491Z,6.80
2023-04-20T04:33:15.112Z,6.80
2023-04-20T04:35:44.000Z,6.80
2023-04-20T04:38:13.962Z,6.80
2023-04-20T04:40:45.485Z,6.90
2023-04-20T04:43:13.695Z,6.90
2023-04-20T04:45:42.213Z,7.00
2023-04-20T04:48:12.271Z,7.00
2023-04-20T04:50:42.726Z,7.00
2023-04-20T04:53:11.046Z,7.10
2023-04-20T04:55:39.260Z,7.10
2023-04-20T04:58:07.343Z,7.10
2023-04-20T05:00:35.958Z,7.10
2023-04-20T05:03:04.288Z,7.20
2023-04-20T05:05:32.577Z,7.20
2023-04-20T05:08:02.236Z,7.20
2023-04-20T05:10:30.559Z,7.20
2023-04-20T05:12:59.656Z,7.30
2023-04-20T05:15:28.138Z,7.30
2023-04-20T05:17:56.376Z,7.40
2023-04-20T05:20:25.001Z,7.40
2023-04-20T05:22:53.006Z,7.50
2023-04-20T05:25:22.736Z,7.50
2023-04-20T05:27:51.402Z,7.50
2023-04-20T05:30:21.927Z,7.60
2023-04-20T05:32:52.657Z,7.60
2023-04-20T05:35:21.749Z,7.60
2023-04-20T05:37:50.291Z,7.60
2023-04-20T05:40:18.867Z,7.70
2023-04-20T05:42:48.655Z,7.70
2023-04-20T05:45:16.972Z,7.70
2023-04-20T05:47:54.372Z,7.80
2023-04-20T05:50:23.047Z,7.80
2023-04-20T05:52:51.941Z,7.80
2023-04-20T05:55:22.659Z,7.80
2023-04-20T05:57:53.085Z,7.80
2023-04-20T06:00:24.474Z,7.90
2023-04-20T06:02:54.598Z,7.90
2023-04-20T06:05:23.256Z,7.90
2023-04-20T06:07:51.509Z,7.80
2023-04-20T06:10:19.791Z,7.90
2023-04-20T06:12:48.263Z,7.90
2023-04-20T06:15:18.082Z,7.90
2023-04-20T06:17:46.349Z,7.90
2023-04-20T06:20:14.701Z,7.80
2023-04-20T06:22:46.135Z,7.90
2023-04-20T06:25:15.454Z,8.00
2023-04-20T06:27:44.110Z,8.00
2023-04-20T06:30:13.508Z,8.10
2023-04-20T06:32:43.212Z,8.20
2023-04-20T06:35:11.586Z,8.30
2023-04-20T06:37:41.379Z,8.40
2023-04-20T06:40:10.178Z,8.40
2023-04-20T06:42:38.500Z,8.50
2023-04-20T06:45:07.842Z,8.50
2023-04-20T06:47:36.247Z,8.60
2023-04-20T06:50:10.076Z,8.70
2023-04-20T06:52:38.614Z,8.80
2023-04-20T06:55:07.549Z,8.80
2023-04-20T06:57:39.376Z,8.80
2023-04-20T07:00:09.907Z,8.80
2023-04-20T07:02:45.553Z,8.90
2023-04-20T07:05:15.666Z,9.00
2023-04-20T07:07:44.252Z,9.00
2023-04-20T07:10:14.291Z,9.10
2023-04-20T07:12:44.090Z,9.10
2023-04-20T07:15:13.190Z,9.20
2023-04-20T07:17:41.707Z,9.30
2023-04-20T07:20:11.131Z,9.30
2023-04-20T07:22:40.998Z,9.40
2023-04-20T07:25:10.683Z,9.50
2023-04-20T07:27:41.226Z,9.60
2023-04-20T07:30:12.192Z,9.70
2023-04-20T07:32:41.755Z,9.80
2023-04-20T07:35:10.933Z,9.90
2023-04-20T07:37:40.815Z,10.00
2023-04-20T07:40:10.384Z,10.10
2023-04-20T07:42:39.086Z,10.20
2023-04-20T07:45:08.361Z,10.30
2023-04-20T07:47:37.377Z,10.40
2023-04-20T07:50:06.437Z,10.50
2023-04-20T07:52:35.883Z,10.50
2023-04-20T07:55:08.248Z,10.50
2023-04-20T07:57:37.190Z,10.50
2023-04-20T08:00:07.231Z,10.50
2023-04-20T08:02:35.524Z,10.50
2023-04-20T08:05:04.320Z,10.30
2023-04-20T08:07:33.539Z,10.30
2023-04-20T08:10:03.613Z,10.40
2023-04-20T08:12:33.339Z,10.40
2023-04-20T08:15:04.452Z,10.50
2023-04-20T08:17:34.102Z,10.70
2023-04-20T08:20:02.558Z,10.70
2023-04-20T08:22:31.050Z,10.90
2023-04-20T08:24:59.442Z,11.10
2023-04-20T08:27:29.783Z,11.50
2023-04-20T08:29:59.405Z,11.80
2023-04-20T08:32:27.674Z,11.90
2023-04-20T08:34:57.325Z,11.90
2023-04-20T08:37:26.103Z,11.90
2023-04-20T08:39:54.332Z,12.00
2023-04-20T08:42:22.597Z,12.00
2023-04-20T08:44:50.962Z,12.20
2023-04-20T08:47:22.210Z,12.30
2023-04-20T08:49:54.298Z,12.30
2023-04-20T08:52:22.569Z,12.20
2023-04-20T08:54:56.502Z,12.60
2023-04-20T08:57:25.827Z,13.20
2023-04-20T08:59:54.030Z,13.70
2023-04-20T09:02:23.976Z,13.80
2023-04-20T09:05:04.213Z,14.00
2023-04-20T09:07:32.785Z,14.40
2023-04-20T09:10:02.457Z,14.90
2023-04-20T09:12:41.233Z,15.30
2023-04-20T09:15:10.556Z,15.70
2023-04-20T09:17:42.028Z,16.30
2023-04-20T09:20:11.394Z,16.80
2023-04-20T09:22:40.007Z,17.20
2023-04-20T09:25:15.718Z,17.90
2023-04-20T09:27:43.902Z,18.40
2023-04-20T09:30:13.677Z,18.70
2023-04-20T09:32:43.379Z,19.20
2023-04-20T09:35:11.693Z,19.40
2023-04-20T09:37:49.081Z,19.80
2023-04-20T09:40:19.284Z,20.00
2023-04-20T09:42:49.704Z,20.10
2023-04-20T09:45:19.978Z,20.00
2023-04-20T09:47:51.232Z,19.60
2023-04-20T09:50:29.158Z,19.60
2023-04-20T09:53:02.224Z,19.90
2023-04-20T09:55:32.368Z,20.30
2023-04-20T09:58:03.233Z,20.60
2023-04-20T10:00:31.433Z,20.90
2023-04-20T10:03:01.490Z,21.20
2023-04-20T10:05:37.305Z,21.40
2023-04-20T10:08:05.648Z,21.80
2023-04-20T10:10:45.239Z,21.50
2023-04-20T10:13:13.426Z,21.40
2023-04-20T10:15:43.138Z,21.10
2023-04-20T10:18:24.855Z,21.00
2023-04-20T10:21:05.279Z,20.70
2023-04-20T10:23:33.470Z,20.20
2023-04-20T10:26:02.696Z,20.10
2023-04-20T10:28:40.873Z,20.00
2023-04-20T10:31:13.289Z,20.20
2023-04-20T10:33:52.887Z,20.10
2023-04-20T10:36:29.746Z,20.10
2023-04-20T10:38:58.635Z,19.80
2023-04-20T10:41:27.263Z,19.60
2023-04-20T10:43:55.545Z,19.60
2023-04-20T10:46:25.092Z,19.50
2023-04-20T10:48:56.178Z,19.50
2023-04-20T10:51:26.035Z,19.70
2023-04-20T10:54:02.141Z,19.80
2023-04-20T10:56:38.314Z,20.00
2023-04-20T10:59:10.407Z,20.20
2023-04-20T11:01:39.060Z,20.30
2023-04-20T11:04:09.308Z,20.30
2023-04-20T11:06:37.838Z,20.30
2023-04-20T11:09:06.277Z,20.70
2023-04-20T11:11:37.312Z,20.90
2023-04-20T11:14:09.363Z,21.00
2023-04-20T11:16:49.671Z,21.10
2023-04-20T11:19:27.026Z,21.30
2023-04-20T11:21:55.531Z,21.70
2023-04-20T11:24:26.736Z,21.80
2023-04-20T11:26:56.370Z,21.80
2023-04-20T11:29:35.446Z,22.00
2023-04-20T11:32:06.505Z,22.30
2023-04-20T11:34:38.019Z,22.50
2023-04-20T11:37:07.388Z,22.70
2023-04-20T11:39:35.914Z,22.40
2023-04-20T11:42:04.568Z,22.20
2023-04-20T11:44:33.531Z,22.30
2023-04-20T11:47:02.156Z,22.40
2023-04-20T11:49:30.915Z,22.50
2023-04-20T11:52:01.519Z,22.60
2023-04-20T11:54:32.721Z,22.50
2023-04-20T11:57:01.138Z,22.60
2023-04-20T11:59:29.345Z,22.60
2023-04-20T12:01:57.600Z,23.20
2023-04-20T12:04:26.395Z,23.40
2023-04-20T12:06:54.806Z,23.30
2023-04-20T12:09:24.444Z,23.20
2023-04-20T12:11:52.772Z,23.00
2023-04-20T12:14:21.075Z,23.10
2023-04-20T12:16:49.247Z,23.40
2023-04-20T12:19:17.907Z,23.70
2023-04-20T12:21:47.940Z,23.50
2023-04-20T12:24:16.223Z,23.40
2023-04-20T12:26:46.038Z,23.30
2023-04-20T12:29:14.664Z,22.70
2023-04-20T12:31:42.948Z,22.50
2023-04-20T12:34:11.049Z,22.40
2023-04-20T12:36:39.236Z,22.10
2023-04-20T12:39:07.642Z,21.60
2023-04-20T12:41:36.314Z,21.50
2023-04-20T12:44:15.393Z,21.50
2023-04-20T12:46:43.628Z,21.80
2023-04-20T12:49:11.843Z,22.10
2023-04-20T12:51:40.853Z,22.30
2023-04-20T12:54:09.433Z,22.60
2023-04-20T12:56:37.876Z,22.80
2023-04-20T12:59:07.503Z,22.90
2023-04-20T13:01:35.602Z,22.90
2023-04-20T13:04:04.122Z,22.90
2023-04-20T13:06:32.867Z,22.80
2023-04-20T13:09:02.363Z,22.70
2023-04-20T13:11:31.381Z,22.80
2023-04-20T13:13:59.571Z,22.90
2023-04-20T13:16:29.584Z,22.50
2023-04-20T13:18:57.892Z,22.10
2023-04-20T13:21:26.082Z,21.90
2023-04-20T13:23:54.906Z,22.00
2023-04-20T13:26:25.063Z,22.00
2023-04-20T13:28:54.224Z,22.10
2023-04-20T13:31:22.436Z,22.00
2023-04-20T13:33:54.764Z,22.00
2023-04-20T13:36:23.485Z,22.10
2023-04-20T13:38:53.498Z,22.10
2023-04-20T13:41:21.977Z,21.70
2023-04-20T13:43:50.724Z,21.70
2023-04-20T13:46:20.071Z,21.70
2023-04-20T13:48:48.503Z,21.50
2023-04-20T13:51:18.024Z,21.30
2023-04-20T13:53:48.026Z,21.10
2023-04-20T13:56:16.667Z,21.10
2023-04-20T13:58:45.197Z,21.10
2023-04-20T14:01:15.562Z,21.10
2023-04-20T14:03:44.206Z,21.00
2023-04-20T14:06:12.438Z,21.00
2023-04-20T14:08:42.107Z,20.90
2023-04-20T14:11:10.754Z,20.90
2023-04-20T14:13:38.972Z,20.70
2023-04-20T14:16:10.328Z,20.30
2023-04-20T14:18:38.375Z,20.20
2023-04-20T14:21:06.886Z,20.00
2023-04-20T14:23:35.111Z,19.90
2023-04-20T14:26:04.951Z,19.90
2023-04-20T14:28:33.651Z,19.80
2023-04-20T14:31:03.253Z,19.90
2023-04-20T14:33:31.551Z,20.00
2023-04-20T14:35:59.777Z,20.10
2023-04-20T14:38:27.999Z,20.40
2023-04-20T14:40:56.445Z,20.50
2023-04-20T14:43:26.124Z,20.30
2023-04-20T14:45:55.310Z,20.30
2023-04-20T14:48:24.353Z,20.20
2023-04-20T14:50:52.703Z,20.20
2023-04-20T14:53:22.459Z,20.20
2023-04-20T14:55:51.295Z,20.10
2023-04-20T14:58:20.603Z,20.00
2023-04-20T15:00:50.687Z,19.80
2023-04-20T15:03:22.074Z,19.70
2023-04-20T15:05:50.666Z,19.50
2023-04-20T15:08:18.897Z,19.30
2023-04-20T15:10:47.102Z,19.30
2023-04-20T15:13:15.267Z,19.10
2023-04-20T15:15:48.652Z,19.00
2023-04-20T15:18:20.128Z,19.00
2023-04-20T15:20:48.530Z,19.00
2023-04-20T15:23:18.137Z,18.90
2023-04-20T15:25:55.809Z,18.90
2023-04-20T15:28:24.267Z,18.80
2023-04-20T15:30:52.758Z,18.80
2023-04-20T15:33:26.365Z,18.70
2023-04-20T15:36:01.363Z,18.70
2023-04-20T15:38:30.067Z,18.60
2023-04-20T15:41:04.696Z,18.40
2023-04-20T15:43:33.147Z,18.00
2023-04-20T15:46:01.580Z,17.90
2023-04-20T15:48:31.781Z,17.80
2023-04-20T15:51:03.140Z,17.80
2023-04-20T15:53:34.881Z,17.90
2023-04-20T15:56:05.910Z,18.00
2023-04-20T15:58:39.217Z,17.90
2023-04-20T16:01:22.696Z,17.90
2023-04-20T16:03:54.279Z,17.90
2023-04-20T16:06:25.849Z,17.80
2023-04-20T16:08:54.969Z,17.90
2023-04-20T16:11:28.346Z,17.90
2023-04-20T16:13:59.910Z,17.90
2023-04-20T16:16:29.874Z,17.80
2023-04-20T16:18:59.952Z,17.80
2023-04-20T16:21:28.701Z,17.80
2023-04-20T16:23:57.904Z,17.50
2023-04-20T16:26:26.837Z,17.50
2023-04-20T16:28:55.608Z,17.60
2023-04-20T16:31:23.995Z,17.60
2023-04-20T16:33:55.656Z,17.60
2023-04-20T16:36:26.765Z,17.50
2023-04-20T16:38:55.044Z,17.60
2023-04-20T16:41:23.361Z,17.40
2023-04-20T16:43:51.855Z,17.40
2023-04-20T16:46:22.385Z,17.30
2023-04-20T16:48:51.617Z,17.20
2023-04-20T16:51:19.788Z,17.10
2023-04-20T16:53:49.939Z,17.00
2023-04-20T16:56:18.122Z,17.00
2023-04-20T16:58:46.178Z,17.00
2023-04-20T17:01:15.144Z,16.90
2023-04-20T17:03:43.334Z,16.80
2023-04-20T17:06:11.644Z,16.80
2023-04-20T17:08:39.759Z,16.70
2023-04-20T17:11:09.393Z,16.70
2023-04-20T17:13:37.610Z,16.60
2023-04-20T17:16:06.304Z,16.50
2023-04-20T17:18:35.292Z,16.50
2023-04-20T17:21:03.582Z,16.40
2023-04-20T17:23:34.346Z,16.40
2023-04-20T17:26:11.618Z,16.20
2023-04-20T17:28:39.952Z,16.20
2023-04-20T17:31:08.231Z,16.10
2023-04-20T17:33:36.694Z,16.10
2023-04-20T17:36:05.301Z,16.10
2023-04-20T17:38:36.688Z,16.10
2023-04-20T17:41:05.256Z,16.10
2023-04-20T17:43:37.055Z,16.00
2023-04-20T17:46:05.547Z,16.00
2023-04-20T17:48:33.998Z,15.90
2023-04-20T17:51:02.486Z,15.80
2023-04-20T17:53:31.447Z,15.80
2023-04-20T17:55:59.910Z,15.80
2023-04-20T17:58:28.229Z,15.70
2023-04-20T18:00:57.966Z,15.60
2023-04-20T18:03:26.712Z,15.60
2023-04-20T18:05:55.068Z,15.50
2023-04-20T18:08:23.652Z,15.40
2023-04-20T18:10:53.195Z,15.40
2023-04-20T18:13:23.656Z,15.30
2023-04-20T18:15:52.143Z,15.30
2023-04-20T18:18:22.592Z,15.20
2023-04-20T18:20:51.206Z,15.20
2023-04-20T18:23:19.584Z,15.10
2023-04-20T18:25:49.316Z,15.00
2023-04-20T18:28:17.496Z,15.00
2023-04-20T18:30:45.938Z,14.90
2023-04-20T18:33:15.496Z,14.90
2023-04-20T18:35:46.008Z,14.70
2023-04-20T18:38:14.602Z,14.70
2023-04-20T18:40:43.044Z,14.70
2023-04-20T18:43:11.414Z,14.60
2023-04-20T18:45:39.739Z,14.60
2023-04-20T18:48:08.316Z,14.60
2023-04-20T18:50:37.332Z,14.50
2023-04-20T18:53:07.141Z,14.40
2023-04-20T18:55:35.999Z,14.40
2023-04-20T18:58:04.335Z,14.30
2023-04-20T19:00:33.984Z,14.30
2023-04-20T19:03:04.683Z,14.30
2023-04-20T19:05:39.130Z,14.20
2023-04-20T19:08:08.586Z,14.20
2023-04-20T19:10:41.620Z,14.10
2023-04-20T19:13:10.039Z,14.10
2023-04-20T19:15:40.576Z,14.00
2023-04-20T19:18:09.070Z,14.00
2023-04-20T19:20:39.583Z,13.90
2023-04-20T19:23:09.601Z,13.90
2023-04-20T19:25:38.288Z,13.90
2023-04-20T19:28:08.308Z,13.80
2023-04-20T19:30:37.309Z,13.80
2023-04-20T19:33:06.273Z,13.80
2023-04-20T19:35:39.050Z,13.70
2023-04-20T19:38:09.040Z,13.70
2023-04-20T19:40:37.468Z,13.70
2023-04-20T19:43:05.916Z,13.70
2023-04-20T19:45:34.243Z,13.70
2023-04-20T19:48:02.728Z,13.70
2023-04-20T19:50:31.083Z,13.60
2023-04-20T19:52:59.544Z,13.60
2023-04-20T19:55:29.412Z,13.50
2023-04-20T19:57:58.105Z,13.40
2023-04-20T20:00:26.854Z,13.30
2023-04-20T20:02:55.405Z,13.10
2023-04-20T20:05:24.379Z,13.10
2023-04-20T20:07:56.115Z,12.90
2023-04-20T20:10:24.528Z,12.80
2023-04-20T20:12:54.626Z,12.80
2023-04-20T20:15:24.833Z,12.80
2023-04-20T20:18:00.154Z,12.80
2023-04-20T20:20:30.768Z,12.80
2023-04-20T20:22:59.622Z,12.80
2023-04-20T20:25:28.047Z,12.80
2023-04-20T20:27:59.319Z,12.70
2023-04-20T20:30:27.731Z,12.70
2023-04-20T20:32:59.136Z,12.70
2023-04-20T20:35:44.435Z,12.60
2023-04-20T20:43:57.634Z,12.50
2023-04-20T20:46:26.185Z,12.40
2023-04-20T20:49:09.094Z,12.50
2023-04-20T20:51:41.836Z,12.40
2023-04-20T20:54:10.237Z,12.40
2023-04-20T20:57:10.948Z,12.30
2023-04-20T20:59:53.426Z,12.30
2023-04-20T21:02:39.658Z,12.20
2023-04-20T21:05:18.773Z,12.20
2023-04-20T21:08:02.594Z,12.10
2023-04-20T21:10:43.902Z,12.10
2023-04-20T21:13:21.720Z,12.10
2023-04-20T21:18:46.789Z,12.00
2023-04-20T21:21:17.030Z,12.00
2023-04-20T21:26:38.520Z,11.90
2023-04-20T21:29:12.904Z,11.80
2023-04-20T21:31:54.508Z,11.70
2023-04-20T21:34:38.271Z,11.60
2023-04-20T21:37:07.119Z,11.40
2023-04-20T21:39:40.703Z,11.40
2023-04-20T21:42:09.215Z,11.30
2023-04-20T21:44:37.516Z,11.30
2023-04-20T21:47:15.791Z,11.30
2023-04-20T21:49:46.241Z,11.30
2023-04-20T21:52:14.487Z,11.40
2023-04-20T21:54:42.698Z,11.40
2023-04-20T21:57:11.107Z,11.40
2023-04-20T21:59:39.432Z,11.30
2023-04-20T22:02:09.326Z,11.30
2023-04-20T22:04:38.102Z,11.30
2023-04-20T22:07:06.529Z,11.30
2023-04-20T22:09:37.759Z,11.30
2023-04-20T22:12:06.792Z,11.20
2023-04-20T22:14:35.231Z,11.20
2023-04-20T22:17:03.748Z,11.20
2023-04-20T22:19:33.633Z,11.20
2023-04-20T22:22:01.918Z,11.10
2023-04-20T22:24:30.085Z,11.10
2023-04-20T22:26:58.838Z,11.10
2023-04-20T22:29:27.170Z,11.10
2023-04-20T22:32:00.196Z,11.00
2023-04-20T22:34:32.389Z,11.00
2023-04-20T22:37:02.429Z,11.00
2023-04-20T22:39:33.437Z,11.00
2023-04-20T22:42:02.194Z,11.00
2023-04-20T22:44:30.386Z,10.90
2023-04-20T22:46:58.737Z,10.90
2023-04-20T22:49:28.761Z,10.80
2023-04-20T22:51:57.693Z,10.80
2023-04-20T22:54:27.537Z,10.70
2023-04-20T22:56:56.158Z,10.70
2023-04-20T22:59:24.604Z,10.70
2023-04-20T23:01:53.955Z,10.70
2023-04-20T23:04:22.532Z,10.60
2023-04-20T23:06:52.284Z,10.50
2023-04-20T23:09:25.351Z,10.50
2023-04-20T23:12:03.493Z,10.40
2023-04-20T23:14:32.196Z,10.40
2023-04-20T23:17:00.543Z,10.30
2023-04-20T23:19:32.830Z,10.30
2023-04-20T23:22:04.686Z,10.30
2023-04-20T23:24:33.904Z,10.30
2023-04-20T23:27:06.874Z,10.40
2023-04-20T23:29:35.324Z,10.40
2023-04-20T23:32:04.753Z,10.40
2023-04-20T23:34:33.123Z,10.50
2023-04-20T23:37:01.569Z,10.40
2023-04-20T23:39:37.833Z,10.40
2023-04-20T23:42:07.717Z,10.40
2023-04-20T23:44:36.174Z,10.50
2023-04-20T23:47:04.535Z,10.40
2023-04-20T23:49:37.287Z,10.40
2023-04-20T23:52:07.344Z,10.40
2023-04-20T23:54:38.200Z,10.40
2023-04-20T23:57:12.345Z,10.40
2023-04-20T23:59:40.634Z,10.40
